KBYI/BYI METAR and TAF weather

Enter ICAO airport designator
Station Type Date Time Source
KBYI METAR 2019/06/26 21:53 UTC NOAA

KBYI 262153Z AUTO 30006KT 10SM CLR 27/06 A2987 RMK AO2 SLP073 T02670056


Station Type Date Time Source
KBYI Decoded METAR 2019/06/26 21:53 UTC NOAA

BURLEY MUNICIPAL AIRPORT, ID, United States (KBYI) 42-33N 113-46W 1264M
Jun 26, 2019 - 05:53 PM EDT / 2019.06.26 2153 UTC
Wind: from the WNW (300 degrees) at 7 MPH (6 KT):0
Visibility: 10 mile(s):0
Sky conditions: clear
Temperature: 80.1 F (26.7 C)
Dew Point: 42.1 F (5.6 C)
Relative Humidity: 25%
Pressure (altimeter): 29.87 in. Hg (1011 hPa)
ob: KBYI 262153Z AUTO 30006KT 10SM CLR 27/06 A2987 RMK AO2 SLP073 T02670056
cycle: 22

Station Type Date Time Source
KBYI TAF 2019/06/26 18:22 UTC NOAA

TAF KBYI 261720Z 2618/2718 30010KT P6SM VCTS SCT090 BKN150CB
FM270600 24010KT P6SM SCT090 SCT200

Example: see airport list